East Peoria, Illinois
Current Conditions -  °F | °C
As of 5:54 PM on Wednesday 22 Oct 2014 (Local Time) from KPIA Reporting Station
Clear Clear  
Wind Chill: 58°   Ceiling: Unl
Heat Index: 58°   Visibility: 10mi
Dew Point: 36°   Wind: 5mph
Humidity: 44%   Direction: 130°SE
Pressure: 30.23"   Gusts: NA
Location:  40.66°N, 89.59°W
Report Text: KPIA 222254Z 13004KT 10SM CLR 14/02 A3023 RMK AO2 SLP238 T01440022
Loading
Personal Weather Stations






























Interactive Weather Map
Tropical Storm Tracking
New forecast layout! Learn more

10-Day Weather Forecast

Advertisements
Track Severe Weather on mobile